sensor_id;sensor_type;location;lat;lon;timestamp;P1;durP1;ratioP1;P2;durP2;ratioP2
75943;SDS011;64627;46.076;18.238;2022-11-14T06:41:11;58.30;;;24.08;;
75943;SDS011;64627;46.076;18.238;2022-11-14T06:43:58;51.92;;;23.00;;
75943;SDS011;64627;46.076;18.238;2022-11-14T06:46:43;55.03;;;25.42;;
75943;SDS011;64627;46.076;18.238;2022-11-14T06:49:44;54.10;;;25.85;;
75943;SDS011;64627;46.076;18.238;2022-11-14T06:52:30;53.30;;;24.23;;
75943;SDS011;64627;46.076;18.238;2022-11-14T06:55:19;63.22;;;27.17;;
75943;SDS011;64627;46.076;18.238;2022-11-14T06:58:03;52.08;;;23.10;;
75943;SDS011;64627;46.076;18.238;2022-11-14T07:00:48;54.25;;;25.15;;
75943;SDS011;64627;46.076;18.238;2022-11-14T07:15:30;46.45;;;23.00;;
75943;SDS011;64627;46.076;18.238;2022-11-14T07:18:35;52.40;;;22.48;;
75943;SDS011;64627;46.076;18.238;2022-11-14T07:21:27;60.80;;;28.52;;
75943;SDS011;64627;46.076;18.238;2022-11-14T07:24:24;46.53;;;22.30;;
75943;SDS011;64627;46.076;18.238;2022-11-14T07:27:20;52.28;;;25.37;;
75943;SDS011;64627;46.076;18.238;2022-11-14T07:30:14;47.50;;;25.83;;
75943;SDS011;64627;46.076;18.238;2022-11-14T07:33:04;52.08;;;26.92;;
75943;SDS011;64627;46.076;18.238;2022-11-14T07:35:58;49.92;;;24.83;;
75943;SDS011;64627;46.076;18.238;2022-11-14T07:39:06;65.37;;;28.77;;
75943;SDS011;64627;46.076;18.238;2022-11-14T07:41:57;45.28;;;22.58;;
75943;SDS011;64627;46.076;18.238;2022-11-14T08:12:02;25.98;;;14.02;;
75943;SDS011;64627;46.076;18.238;2022-11-14T08:18:05;25.48;;;12.20;;
75943;SDS011;64627;46.076;18.238;2022-11-14T08:21:08;29.37;;;13.73;;
75943;SDS011;64627;46.076;18.238;2022-11-14T08:23:59;26.02;;;14.02;;
75943;SDS011;64627;46.076;18.238;2022-11-14T08:29:52;32.20;;;14.77;;
75943;SDS011;64627;46.076;18.238;2022-11-14T08:32:56;24.37;;;13.40;;
75943;SDS011;64627;46.076;18.238;2022-11-14T08:45:44;25.30;;;13.25;;
75943;SDS011;64627;46.076;18.238;2022-11-14T08:48:36;22.98;;;12.80;;
75943;SDS011;64627;46.076;18.238;2022-11-14T08:51:34;19.92;;;11.77;;
75943;SDS011;64627;46.076;18.238;2022-11-14T08:54:42;37.85;;;13.45;;
75943;SDS011;64627;46.076;18.238;2022-11-14T09:01:03;22.02;;;11.90;;
75943;SDS011;64627;46.076;18.238;2022-11-14T09:04:05;20.33;;;11.80;;
75943;SDS011;64627;46.076;18.238;2022-11-14T09:16:46;23.55;;;12.57;;
75943;SDS011;64627;46.076;18.238;2022-11-14T09:19:52;27.92;;;11.82;;
75943;SDS011;64627;46.076;18.238;2022-11-14T09:46:33;24.05;;;12.25;;
75943;SDS011;64627;46.076;18.238;2022-11-14T09:49:32;19.98;;;11.73;;
75943;SDS011;64627;46.076;18.238;2022-11-14T09:55:45;22.85;;;12.65;;
75943;SDS011;64627;46.076;18.238;2022-11-14T09:58:35;28.55;;;13.40;;
75943;SDS011;64627;46.076;18.238;2022-11-14T10:04:53;25.27;;;13.73;;
75943;SDS011;64627;46.076;18.238;2022-11-14T10:11:22;31.52;;;16.58;;
75943;SDS011;64627;46.076;18.238;2022-11-14T10:20:09;33.40;;;16.80;;
75943;SDS011;64627;46.076;18.238;2022-11-14T10:26:53;26.67;;;15.40;;
75943;SDS011;64627;46.076;18.238;2022-11-14T10:30:17;22.37;;;13.15;;
75943;SDS011;64627;46.076;18.238;2022-11-14T10:33:05;21.20;;;13.88;;
75943;SDS011;64627;46.076;18.238;2022-11-14T10:36:01;41.53;;;22.02;;
75943;SDS011;64627;46.076;18.238;2022-11-14T10:38:58;25.23;;;14.18;;
75943;SDS011;64627;46.076;18.238;2022-11-14T10:41:59;24.63;;;13.20;;
75943;SDS011;64627;46.076;18.238;2022-11-14T10:44:52;27.25;;;15.95;;
75943;SDS011;64627;46.076;18.238;2022-11-14T10:47:58;28.12;;;15.13;;
75943;SDS011;64627;46.076;18.238;2022-11-14T11:07:30;34.63;;;17.30;;
75943;SDS011;64627;46.076;18.238;2022-11-14T11:10:45;32.30;;;18.00;;
75943;SDS011;64627;46.076;18.238;2022-11-14T11:13:52;29.08;;;17.25;;
75943;SDS011;64627;46.076;18.238;2022-11-14T11:16:38;27.83;;;17.05;;
75943;SDS011;64627;46.076;18.238;2022-11-14T11:19:23;29.23;;;17.37;;
75943;SDS011;64627;46.076;18.238;2022-11-14T11:25:34;25.35;;;15.18;;
75943;SDS011;64627;46.076;18.238;2022-11-14T11:28:33;33.22;;;15.93;;
75943;SDS011;64627;46.076;18.238;2022-11-14T11:35:14;29.83;;;16.60;;
75943;SDS011;64627;46.076;18.238;2022-11-14T11:38:07;24.43;;;15.27;;
75943;SDS011;64627;46.076;18.238;2022-11-14T11:44:54;26.48;;;15.32;;
75943;SDS011;64627;46.076;18.238;2022-11-14T11:48:00;25.92;;;14.93;;
75943;SDS011;64627;46.076;18.238;2022-11-14T11:51:05;38.22;;;17.83;;
75943;SDS011;64627;46.076;18.238;2022-11-14T11:54:21;25.48;;;15.48;;
75943;SDS011;64627;46.076;18.238;2022-11-14T11:57:18;24.73;;;14.85;;
75943;SDS011;64627;46.076;18.238;2022-11-14T12:00:20;26.75;;;13.82;;
75943;SDS011;64627;46.076;18.238;2022-11-14T12:03:12;25.90;;;15.02;;
75943;SDS011;64627;46.076;18.238;2022-11-14T12:09:18;25.40;;;13.80;;
75943;SDS011;64627;46.076;18.238;2022-11-14T12:12:07;27.42;;;14.48;;
75943;SDS011;64627;46.076;18.238;2022-11-14T12:22:28;23.12;;;13.30;;
75943;SDS011;64627;46.076;18.238;2022-11-14T12:32:07;23.87;;;13.68;;
75943;SDS011;64627;46.076;18.238;2022-11-14T12:34:55;24.05;;;14.98;;
75943;SDS011;64627;46.076;18.238;2022-11-14T12:37:43;25.37;;;13.70;;
75943;SDS011;64627;46.076;18.238;2022-11-14T12:43:42;26.25;;;15.85;;
75943;SDS011;64627;46.076;18.238;2022-11-14T12:46:28;22.52;;;13.32;;
75943;SDS011;64627;46.076;18.238;2022-11-14T12:52:47;26.45;;;15.10;;
75943;SDS011;64627;46.076;18.238;2022-11-14T12:58:59;27.45;;;15.32;;
75943;SDS011;64627;46.076;18.238;2022-11-14T13:15:46;29.37;;;15.68;;
75943;SDS011;64627;46.076;18.238;2022-11-14T13:19:12;26.12;;;14.38;;
75943;SDS011;64627;46.076;18.238;2022-11-14T13:22:48;33.80;;;18.37;;
75943;SDS011;64627;46.076;18.238;2022-11-14T13:25:34;28.45;;;15.60;;
75943;SDS011;64627;46.076;18.238;2022-11-14T13:34:41;29.60;;;18.05;;
75943;SDS011;64627;46.076;18.238;2022-11-14T13:52:47;28.52;;;15.80;;
75943;SDS011;64627;46.076;18.238;2022-11-14T13:59:18;46.30;;;20.95;;
75943;SDS011;64627;46.076;18.238;2022-11-14T14:11:16;39.45;;;20.02;;
75943;SDS011;64627;46.076;18.238;2022-11-14T14:17:21;29.55;;;16.67;;
75943;SDS011;64627;46.076;18.238;2022-11-14T14:29:16;32.78;;;16.85;;
75943;SDS011;64627;46.076;18.238;2022-11-14T14:32:10;30.80;;;15.95;;
75943;SDS011;64627;46.076;18.238;2022-11-14T14:34:55;34.90;;;18.37;;
75943;SDS011;64627;46.076;18.238;2022-11-14T14:37:48;43.50;;;19.35;;
75943;SDS011;64627;46.076;18.238;2022-11-14T14:40:34;33.38;;;16.23;;
75943;SDS011;64627;46.076;18.238;2022-11-14T14:43:41;30.90;;;15.68;;
75943;SDS011;64627;46.076;18.238;2022-11-14T14:46:31;33.05;;;16.17;;
75943;SDS011;64627;46.076;18.238;2022-11-14T14:49:31;28.30;;;15.45;;
75943;SDS011;64627;46.076;18.238;2022-11-14T14:52:18;30.25;;;15.07;;
75943;SDS011;64627;46.076;18.238;2022-11-14T14:55:24;35.08;;;19.58;;
75943;SDS011;64627;46.076;18.238;2022-11-14T14:58:22;30.65;;;16.42;;
75943;SDS011;64627;46.076;18.238;2022-11-14T15:01:30;29.27;;;15.57;;
75943;SDS011;64627;46.076;18.238;2022-11-14T15:04:16;32.08;;;15.85;;
75943;SDS011;64627;46.076;18.238;2022-11-14T15:07:21;34.05;;;15.93;;
75943;SDS011;64627;46.076;18.238;2022-11-14T15:10:17;27.50;;;15.25;;
75943;SDS011;64627;46.076;18.238;2022-11-14T15:13:03;36.70;;;15.35;;
75943;SDS011;64627;46.076;18.238;2022-11-14T15:15:48;27.37;;;15.23;;
75943;SDS011;64627;46.076;18.238;2022-11-14T15:18:33;28.45;;;15.48;;
75943;SDS011;64627;46.076;18.238;2022-11-14T15:21:24;29.35;;;16.70;;
75943;SDS011;64627;46.076;18.238;2022-11-14T15:24:19;32.20;;;16.55;;
75943;SDS011;64627;46.076;18.238;2022-11-14T15:27:10;30.80;;;16.60;;
75943;SDS011;64627;46.076;18.238;2022-11-14T15:29:56;39.90;;;19.20;;
75943;SDS011;64627;46.076;18.238;2022-11-14T15:32:48;34.90;;;18.42;;
75943;SDS011;64627;46.076;18.238;2022-11-14T15:35:35;39.90;;;19.60;;
75943;SDS011;64627;46.076;18.238;2022-11-14T15:38:28;48.85;;;22.65;;
75943;SDS011;64627;46.076;18.238;2022-11-14T15:41:22;35.08;;;17.12;;
75943;SDS011;64627;46.076;18.238;2022-11-14T15:44:31;47.00;;;20.73;;
75943;SDS011;64627;46.076;18.238;2022-11-14T15:47:23;44.65;;;22.55;;
75943;SDS011;64627;46.076;18.238;2022-11-14T15:56:10;41.67;;;22.27;;
75943;SDS011;64627;46.076;18.238;2022-11-14T15:58:55;40.53;;;19.90;;
75943;SDS011;64627;46.076;18.238;2022-11-14T16:01:49;41.90;;;20.85;;
75943;SDS011;64627;46.076;18.238;2022-11-14T16:04:34;44.05;;;21.27;;
75943;SDS011;64627;46.076;18.238;2022-11-14T16:07:19;52.75;;;21.67;;
75943;SDS011;64627;46.076;18.238;2022-11-14T16:10:17;57.55;;;25.83;;
75943;SDS011;64627;46.076;18.238;2022-11-14T16:13:05;46.28;;;22.83;;
75943;SDS011;64627;46.076;18.238;2022-11-14T16:15:49;61.85;;;30.30;;
75943;SDS011;64627;46.076;18.238;2022-11-14T16:18:40;57.20;;;29.12;;
75943;SDS011;64627;46.076;18.238;2022-11-14T16:21:31;61.42;;;26.37;;
75943;SDS011;64627;46.076;18.238;2022-11-14T16:24:20;56.28;;;27.87;;
75943;SDS011;64627;46.076;18.238;2022-11-14T16:27:05;51.70;;;24.58;;
75943;SDS011;64627;46.076;18.238;2022-11-14T16:29:52;51.15;;;25.67;;
75943;SDS011;64627;46.076;18.238;2022-11-14T16:32:43;65.97;;;26.92;;
75943;SDS011;64627;46.076;18.238;2022-11-14T16:35:41;49.88;;;26.37;;
75943;SDS011;64627;46.076;18.238;2022-11-14T16:38:26;53.97;;;25.15;;
75943;SDS011;64627;46.076;18.238;2022-11-14T16:41:24;59.97;;;25.60;;
75943;SDS011;64627;46.076;18.238;2022-11-14T16:44:12;47.35;;;23.35;;
75943;SDS011;64627;46.076;18.238;2022-11-14T16:47:04;57.30;;;25.33;;
75943;SDS011;64627;46.076;18.238;2022-11-14T16:49:48;55.90;;;25.95;;
75943;SDS011;64627;46.076;18.238;2022-11-14T16:52:35;49.65;;;24.95;;
75943;SDS011;64627;46.076;18.238;2022-11-14T16:55:21;57.75;;;26.23;;
75943;SDS011;64627;46.076;18.238;2022-11-14T16:58:10;49.50;;;24.58;;
75943;SDS011;64627;46.076;18.238;2022-11-14T17:00:53;52.70;;;22.95;;
75943;SDS011;64627;46.076;18.238;2022-11-14T17:03:38;45.78;;;22.42;;
75943;SDS011;64627;46.076;18.238;2022-11-14T17:06:22;44.65;;;22.35;;
75943;SDS011;64627;46.076;18.238;2022-11-14T17:09:13;49.72;;;23.23;;
75943;SDS011;64627;46.076;18.238;2022-11-14T17:11:57;49.78;;;24.40;;
75943;SDS011;64627;46.076;18.238;2022-11-14T17:14:46;53.22;;;26.30;;
75943;SDS011;64627;46.076;18.238;2022-11-14T17:17:30;46.08;;;23.17;;
75943;SDS011;64627;46.076;18.238;2022-11-14T17:20:15;60.10;;;26.08;;
75943;SDS011;64627;46.076;18.238;2022-11-14T17:22:59;55.92;;;25.33;;
75943;SDS011;64627;46.076;18.238;2022-11-14T17:25:47;57.53;;;27.40;;
75943;SDS011;64627;46.076;18.238;2022-11-14T17:28:32;64.87;;;29.50;;
75943;SDS011;64627;46.076;18.238;2022-11-14T17:31:16;63.30;;;29.58;;
75943;SDS011;64627;46.076;18.238;2022-11-14T17:34:01;74.70;;;33.00;;
75943;SDS011;64627;46.076;18.238;2022-11-14T17:36:49;62.08;;;27.27;;
75943;SDS011;64627;46.076;18.238;2022-11-14T17:39:33;61.85;;;28.30;;
75943;SDS011;64627;46.076;18.238;2022-11-14T17:42:17;59.30;;;25.80;;
75943;SDS011;64627;46.076;18.238;2022-11-14T17:45:03;60.70;;;25.60;;
75943;SDS011;64627;46.076;18.238;2022-11-14T17:47:47;54.22;;;24.58;;
75943;SDS011;64627;46.076;18.238;2022-11-14T17:50:38;52.08;;;23.62;;
75943;SDS011;64627;46.076;18.238;2022-11-14T17:53:25;64.30;;;28.35;;
75943;SDS011;64627;46.076;18.238;2022-11-14T17:56:12;52.67;;;24.10;;
75943;SDS011;64627;46.076;18.238;2022-11-14T17:59:01;60.33;;;26.27;;
75943;SDS011;64627;46.076;18.238;2022-11-14T18:01:46;62.13;;;24.63;;
75943;SDS011;64627;46.076;18.238;2022-11-14T18:04:30;57.22;;;25.70;;
75943;SDS011;64627;46.076;18.238;2022-11-14T18:07:17;59.22;;;27.35;;
75943;SDS011;64627;46.076;18.238;2022-11-14T18:10:03;74.87;;;28.62;;
75943;SDS011;64627;46.076;18.238;2022-11-14T18:12:54;64.15;;;27.60;;
75943;SDS011;64627;46.076;18.238;2022-11-14T18:15:46;64.25;;;29.65;;
75943;SDS011;64627;46.076;18.238;2022-11-14T18:18:32;62.92;;;26.65;;
75943;SDS011;64627;46.076;18.238;2022-11-14T18:21:23;61.47;;;28.48;;
75943;SDS011;64627;46.076;18.238;2022-11-14T18:24:09;61.47;;;26.77;;
75943;SDS011;64627;46.076;18.238;2022-11-14T18:26:55;71.28;;;30.77;;
75943;SDS011;64627;46.076;18.238;2022-11-14T18:29:41;66.03;;;27.65;;
75943;SDS011;64627;46.076;18.238;2022-11-14T18:32:33;66.35;;;30.25;;
75943;SDS011;64627;46.076;18.238;2022-11-14T18:35:21;60.08;;;27.10;;
75943;SDS011;64627;46.076;18.238;2022-11-14T18:38:08;65.30;;;29.95;;
75943;SDS011;64627;46.076;18.238;2022-11-14T18:40:52;70.90;;;28.50;;
75943;SDS011;64627;46.076;18.238;2022-11-14T18:43:38;65.85;;;29.73;;
75943;SDS011;64627;46.076;18.238;2022-11-14T18:46:29;61.63;;;27.92;;
75943;SDS011;64627;46.076;18.238;2022-11-14T18:49:22;70.87;;;31.95;;
75943;SDS011;64627;46.076;18.238;2022-11-14T18:52:14;66.47;;;29.87;;
75943;SDS011;64627;46.076;18.238;2022-11-14T18:55:02;71.82;;;30.92;;
75943;SDS011;64627;46.076;18.238;2022-11-14T18:57:47;60.85;;;28.12;;
75943;SDS011;64627;46.076;18.238;2022-11-14T19:00:33;72.57;;;32.25;;
75943;SDS011;64627;46.076;18.238;2022-11-14T19:03:17;73.68;;;31.27;;
75943;SDS011;64627;46.076;18.238;2022-11-14T19:06:10;63.13;;;29.45;;
75943;SDS011;64627;46.076;18.238;2022-11-14T19:09:03;79.97;;;37.58;;
75943;SDS011;64627;46.076;18.238;2022-11-14T19:11:58;64.12;;;28.58;;
75943;SDS011;64627;46.076;18.238;2022-11-14T19:15:01;63.17;;;28.58;;
75943;SDS011;64627;46.076;18.238;2022-11-14T19:17:46;66.70;;;28.42;;
75943;SDS011;64627;46.076;18.238;2022-11-14T19:20:31;72.80;;;30.92;;
75943;SDS011;64627;46.076;18.238;2022-11-14T19:23:17;69.55;;;29.42;;
75943;SDS011;64627;46.076;18.238;2022-11-14T19:26:08;72.95;;;29.37;;
75943;SDS011;64627;46.076;18.238;2022-11-14T19:28:52;74.62;;;30.25;;
75943;SDS011;64627;46.076;18.238;2022-11-14T19:31:37;94.78;;;62.65;;
75943;SDS011;64627;46.076;18.238;2022-11-14T19:34:21;69.12;;;29.87;;
75943;SDS011;64627;46.076;18.238;2022-11-14T19:37:09;63.13;;;30.40;;
75943;SDS011;64627;46.076;18.238;2022-11-14T19:39:53;70.07;;;29.83;;
75943;SDS011;64627;46.076;18.238;2022-11-14T19:42:38;65.15;;;29.35;;
75943;SDS011;64627;46.076;18.238;2022-11-14T19:45:23;68.90;;;30.30;;
75943;SDS011;64627;46.076;18.238;2022-11-14T19:48:20;69.20;;;29.90;;
75943;SDS011;64627;46.076;18.238;2022-11-14T19:51:05;68.85;;;29.17;;
75943;SDS011;64627;46.076;18.238;2022-11-14T19:54:07;69.53;;;29.40;;
75943;SDS011;64627;46.076;18.238;2022-11-14T19:56:52;66.22;;;29.40;;
75943;SDS011;64627;46.076;18.238;2022-11-14T19:59:50;78.80;;;33.67;;
75943;SDS011;64627;46.076;18.238;2022-11-14T20:02:35;65.95;;;29.92;;
75943;SDS011;64627;46.076;18.238;2022-11-14T20:05:24;66.97;;;29.12;;
75943;SDS011;64627;46.076;18.238;2022-11-14T20:08:10;68.22;;;29.65;;
75943;SDS011;64627;46.076;18.238;2022-11-14T20:11:01;58.22;;;26.55;;
75943;SDS011;64627;46.076;18.238;2022-11-14T20:13:46;55.53;;;27.90;;
75943;SDS011;64627;46.076;18.238;2022-11-14T20:16:38;45.03;;;22.13;;
75943;SDS011;64627;46.076;18.238;2022-11-14T20:19:29;49.67;;;21.98;;
75943;SDS011;64627;46.076;18.238;2022-11-14T20:22:21;47.40;;;22.05;;
75943;SDS011;64627;46.076;18.238;2022-11-14T20:25:05;40.55;;;19.20;;
75943;SDS011;64627;46.076;18.238;2022-11-14T20:27:57;33.67;;;17.17;;
75943;SDS011;64627;46.076;18.238;2022-11-14T20:30:44;31.87;;;16.15;;
75943;SDS011;64627;46.076;18.238;2022-11-14T20:33:28;32.35;;;16.83;;
75943;SDS011;64627;46.076;18.238;2022-11-14T20:36:21;35.13;;;17.52;;
75943;SDS011;64627;46.076;18.238;2022-11-14T20:39:13;36.03;;;17.95;;
75943;SDS011;64627;46.076;18.238;2022-11-14T20:42:04;33.90;;;17.42;;
75943;SDS011;64627;46.076;18.238;2022-11-14T20:44:48;30.98;;;15.82;;
75943;SDS011;64627;46.076;18.238;2022-11-14T20:47:32;33.00;;;15.63;;
75943;SDS011;64627;46.076;18.238;2022-11-14T20:50:23;33.58;;;16.27;;
75943;SDS011;64627;46.076;18.238;2022-11-14T20:53:14;30.48;;;16.52;;
75943;SDS011;64627;46.076;18.238;2022-11-14T20:56:06;32.38;;;15.45;;
75943;SDS011;64627;46.076;18.238;2022-11-14T20:59:00;30.27;;;15.23;;
75943;SDS011;64627;46.076;18.238;2022-11-14T21:01:46;34.70;;;16.77;;
75943;SDS011;64627;46.076;18.238;2022-11-14T21:04:30;31.10;;;16.23;;
75943;SDS011;64627;46.076;18.238;2022-11-14T21:07:15;32.78;;;16.73;;
75943;SDS011;64627;46.076;18.238;2022-11-14T21:10:00;35.53;;;16.75;;
75943;SDS011;64627;46.076;18.238;2022-11-14T21:13:07;33.97;;;16.58;;
75943;SDS011;64627;46.076;18.238;2022-11-14T21:16:12;33.17;;;17.60;;
75943;SDS011;64627;46.076;18.238;2022-11-14T21:19:05;35.50;;;17.02;;
75943;SDS011;64627;46.076;18.238;2022-11-14T21:21:52;44.53;;;21.80;;
75943;SDS011;64627;46.076;18.238;2022-11-14T21:24:36;45.53;;;22.17;;
75943;SDS011;64627;46.076;18.238;2022-11-14T21:27:21;42.20;;;19.87;;
75943;SDS011;64627;46.076;18.238;2022-11-14T21:30:19;49.88;;;21.62;;
75943;SDS011;64627;46.076;18.238;2022-11-14T21:33:16;46.88;;;21.40;;
75943;SDS011;64627;46.076;18.238;2022-11-14T21:36:04;49.92;;;21.95;;
75943;SDS011;64627;46.076;18.238;2022-11-14T21:38:49;49.22;;;23.12;;
75943;SDS011;64627;46.076;18.238;2022-11-14T21:41:39;49.40;;;23.40;;
75943;SDS011;64627;46.076;18.238;2022-11-14T21:44:23;50.03;;;23.67;;
75943;SDS011;64627;46.076;18.238;2022-11-14T21:47:14;61.03;;;25.90;;
75943;SDS011;64627;46.076;18.238;2022-11-14T21:49:58;59.03;;;24.80;;
75943;SDS011;64627;46.076;18.238;2022-11-14T21:52:44;56.33;;;27.10;;
75943;SDS011;64627;46.076;18.238;2022-11-14T21:55:31;57.45;;;26.80;;
75943;SDS011;64627;46.076;18.238;2022-11-14T21:58:22;63.90;;;27.90;;
75943;SDS011;64627;46.076;18.238;2022-11-14T22:01:08;59.72;;;26.40;;
75943;SDS011;64627;46.076;18.238;2022-11-14T22:03:56;61.80;;;27.58;;
75943;SDS011;64627;46.076;18.238;2022-11-14T22:06:56;67.62;;;27.98;;
75943;SDS011;64627;46.076;18.238;2022-11-14T22:09:46;63.95;;;26.92;;
75943;SDS011;64627;46.076;18.238;2022-11-14T22:12:37;60.38;;;26.87;;
75943;SDS011;64627;46.076;18.238;2022-11-14T22:15:21;68.03;;;27.90;;
75943;SDS011;64627;46.076;18.238;2022-11-14T22:18:06;63.33;;;28.17;;
75943;SDS011;64627;46.076;18.238;2022-11-14T22:20:57;62.25;;;26.23;;
75943;SDS011;64627;46.076;18.238;2022-11-14T22:23:42;62.65;;;27.02;;
75943;SDS011;64627;46.076;18.238;2022-11-14T22:26:38;66.07;;;27.95;;
75943;SDS011;64627;46.076;18.238;2022-11-14T22:29:24;59.28;;;27.48;;
75943;SDS011;64627;46.076;18.238;2022-11-14T22:32:07;63.90;;;28.95;;
75943;SDS011;64627;46.076;18.238;2022-11-14T22:34:52;64.62;;;27.30;;
75943;SDS011;64627;46.076;18.238;2022-11-14T22:37:40;67.80;;;30.73;;
75943;SDS011;64627;46.076;18.238;2022-11-14T22:40:24;67.40;;;29.12;;
75943;SDS011;64627;46.076;18.238;2022-11-14T22:43:13;64.47;;;27.58;;
75943;SDS011;64627;46.076;18.238;2022-11-14T22:45:58;60.50;;;27.15;;
75943;SDS011;64627;46.076;18.238;2022-11-14T22:48:43;68.35;;;29.20;;
75943;SDS011;64627;46.076;18.238;2022-11-14T22:51:27;62.45;;;28.10;;
75943;SDS011;64627;46.076;18.238;2022-11-14T22:54:17;67.53;;;30.42;;
75943;SDS011;64627;46.076;18.238;2022-11-14T22:57:02;72.28;;;29.42;;
75943;SDS011;64627;46.076;18.238;2022-11-14T22:59:53;64.93;;;28.80;;
75943;SDS011;64627;46.076;18.238;2022-11-14T23:02:39;71.53;;;29.83;;
75943;SDS011;64627;46.076;18.238;2022-11-14T23:05:23;66.62;;;30.20;;
75943;SDS011;64627;46.076;18.238;2022-11-14T23:08:09;69.25;;;29.23;;
75943;SDS011;64627;46.076;18.238;2022-11-14T23:11:00;67.80;;;27.52;;
75943;SDS011;64627;46.076;18.238;2022-11-14T23:13:46;63.38;;;27.17;;
75943;SDS011;64627;46.076;18.238;2022-11-14T23:16:38;61.30;;;26.83;;
75943;SDS011;64627;46.076;18.238;2022-11-14T23:19:29;59.92;;;26.30;;
75943;SDS011;64627;46.076;18.238;2022-11-14T23:22:24;66.28;;;26.77;;
75943;SDS011;64627;46.076;18.238;2022-11-14T23:25:09;64.53;;;27.02;;
75943;SDS011;64627;46.076;18.238;2022-11-14T23:27:59;60.58;;;27.13;;
75943;SDS011;64627;46.076;18.238;2022-11-14T23:30:43;59.17;;;26.67;;
75943;SDS011;64627;46.076;18.238;2022-11-14T23:33:27;64.28;;;26.90;;
75943;SDS011;64627;46.076;18.238;2022-11-14T23:36:11;68.00;;;27.05;;
75943;SDS011;64627;46.076;18.238;2022-11-14T23:38:56;65.90;;;27.23;;
75943;SDS011;64627;46.076;18.238;2022-11-14T23:41:40;58.78;;;26.65;;
75943;SDS011;64627;46.076;18.238;2022-11-14T23:44:29;65.05;;;26.60;;
75943;SDS011;64627;46.076;18.238;2022-11-14T23:47:13;65.40;;;28.67;;
75943;SDS011;64627;46.076;18.238;2022-11-14T23:50:00;62.60;;;28.23;;
75943;SDS011;64627;46.076;18.238;2022-11-14T23:52:44;61.55;;;26.62;;
75943;SDS011;64627;46.076;18.238;2022-11-14T23:55:31;62.42;;;27.05;;
75943;SDS011;64627;46.076;18.238;2022-11-14T23:58:16;74.20;;;30.58;;
